sensor_id;sensor_type;location;lat;lon;timestamp;pressure;altitude;pressure_sealevel;temperature;humidity
16806;BME280;8520;50.102;20.010;2023-03-02T00:01:32;99065.00;;;2.94;65.73
16806;BME280;8520;50.102;20.010;2023-03-02T00:04:02;99068.03;;;2.51;67.15
16806;BME280;8520;50.102;20.010;2023-03-02T00:06:33;99069.63;;;2.97;66.47
16806;BME280;8520;50.102;20.010;2023-03-02T00:09:03;99069.41;;;3.18;65.45
16806;BME280;8520;50.102;20.010;2023-03-02T00:11:33;99066.63;;;3.25;64.86
16806;BME280;8520;50.102;20.010;2023-03-02T00:14:02;99059.22;;;3.26;64.59
16806;BME280;8520;50.102;20.010;2023-03-02T00:16:31;99070.13;;;3.26;64.33
16806;BME280;8520;50.102;20.010;2023-03-02T00:18:59;99059.69;;;3.21;63.98
16806;BME280;8520;50.102;20.010;2023-03-02T00:21:27;99063.94;;;3.22;64.01
16806;BME280;8520;50.102;20.010;2023-03-02T00:23:57;99054.56;;;2.85;64.68
16806;BME280;8520;50.102;20.010;2023-03-02T00:26:27;99052.22;;;2.87;65.49
16806;BME280;8520;50.102;20.010;2023-03-02T00:28:55;99058.22;;;3.12;64.65
16806;BME280;8520;50.102;20.010;2023-03-02T00:31:23;99051.91;;;3.19;64.14
16806;BME280;8520;50.102;20.010;2023-03-02T00:33:52;99057.03;;;3.13;64.47
16806;BME280;8520;50.102;20.010;2023-03-02T00:36:21;99054.84;;;2.98;65.07
16806;BME280;8520;50.102;20.010;2023-03-02T00:38:50;99053.63;;;3.02;64.87
16806;BME280;8520;50.102;20.010;2023-03-02T00:41:19;99049.44;;;2.91;64.69
16806;BME280;8520;50.102;20.010;2023-03-02T00:43:49;99040.88;;;2.92;64.79
16806;BME280;8520;50.102;20.010;2023-03-02T00:46:19;99040.81;;;3.03;64.44
16806;BME280;8520;50.102;20.010;2023-03-02T00:48:48;99044.00;;;2.94;64.54
16806;BME280;8520;50.102;20.010;2023-03-02T00:51:16;99045.91;;;2.97;64.07
16806;BME280;8520;50.102;20.010;2023-03-02T00:53:45;99044.06;;;2.87;64.27
16806;BME280;8520;50.102;20.010;2023-03-02T00:56:13;99042.06;;;2.91;64.02
16806;BME280;8520;50.102;20.010;2023-03-02T00:58:46;99036.31;;;2.82;64.06
16806;BME280;8520;50.102;20.010;2023-03-02T01:01:16;99033.13;;;2.91;63.97
16806;BME280;8520;50.102;20.010;2023-03-02T01:03:48;99038.13;;;2.96;63.68
16806;BME280;8520;50.102;20.010;2023-03-02T01:06:19;99037.78;;;2.90;63.66
16806;BME280;8520;50.102;20.010;2023-03-02T01:08:47;99031.56;;;2.93;63.56
16806;BME280;8520;50.102;20.010;2023-03-02T01:11:18;99029.56;;;2.97;63.43
16806;BME280;8520;50.102;20.010;2023-03-02T01:13:47;99026.03;;;3.00;63.15
16806;BME280;8520;50.102;20.010;2023-03-02T01:16:17;99028.72;;;3.04;63.20
16806;BME280;8520;50.102;20.010;2023-03-02T01:18:45;99032.19;;;3.08;62.86
16806;BME280;8520;50.102;20.010;2023-03-02T01:21:14;99019.91;;;2.93;62.71
16806;BME280;8520;50.102;20.010;2023-03-02T01:23:42;99023.69;;;3.02;62.40
16806;BME280;8520;50.102;20.010;2023-03-02T01:26:10;99027.09;;;3.10;62.09
16806;BME280;8520;50.102;20.010;2023-03-02T01:28:38;99024.38;;;3.10;61.97
16806;BME280;8520;50.102;20.010;2023-03-02T01:31:06;99033.31;;;3.10;62.07
16806;BME280;8520;50.102;20.010;2023-03-02T01:33:36;99029.16;;;2.99;62.00
16806;BME280;8520;50.102;20.010;2023-03-02T01:36:05;99029.09;;;3.06;61.83
16806;BME280;8520;50.102;20.010;2023-03-02T01:38:33;99018.56;;;3.08;61.78
16806;BME280;8520;50.102;20.010;2023-03-02T01:41:01;99020.09;;;3.09;61.68
16806;BME280;8520;50.102;20.010;2023-03-02T01:43:29;99013.94;;;3.01;61.57
16806;BME280;8520;50.102;20.010;2023-03-02T01:45:58;99021.81;;;2.96;61.77
16806;BME280;8520;50.102;20.010;2023-03-02T01:48:58;99014.00;;;2.98;61.62
16806;BME280;8520;50.102;20.010;2023-03-02T01:51:45;99002.34;;;2.97;61.50
16806;BME280;8520;50.102;20.010;2023-03-02T01:54:18;99000.81;;;2.96;61.40
16806;BME280;8520;50.102;20.010;2023-03-02T01:56:56;98996.53;;;2.95;61.27
16806;BME280;8520;50.102;20.010;2023-03-02T01:59:27;98996.56;;;2.92;61.22
16806;BME280;8520;50.102;20.010;2023-03-02T02:02:01;98982.22;;;2.88;61.24
16806;BME280;8520;50.102;20.010;2023-03-02T02:04:34;98987.25;;;2.89;61.40
16806;BME280;8520;50.102;20.010;2023-03-02T02:07:06;98986.53;;;2.85;61.68
16806;BME280;8520;50.102;20.010;2023-03-02T02:09:38;98981.81;;;2.89;61.57
16806;BME280;8520;50.102;20.010;2023-03-02T02:12:12;98985.66;;;2.95;61.77
16806;BME280;8520;50.102;20.010;2023-03-02T02:14:41;98982.56;;;2.93;61.67
16806;BME280;8520;50.102;20.010;2023-03-02T02:17:10;98981.88;;;2.82;61.97
16806;BME280;8520;50.102;20.010;2023-03-02T02:20:02;98981.50;;;2.83;62.03
16806;BME280;8520;50.102;20.010;2023-03-02T02:22:41;98977.19;;;2.86;62.07
16806;BME280;8520;50.102;20.010;2023-03-02T02:25:21;98974.88;;;2.81;62.06
16806;BME280;8520;50.102;20.010;2023-03-02T02:27:55;98978.91;;;2.69;62.76
16806;BME280;8520;50.102;20.010;2023-03-02T02:30:24;98969.63;;;2.63;63.03
16806;BME280;8520;50.102;20.010;2023-03-02T02:32:54;98966.06;;;2.70;62.81
16806;BME280;8520;50.102;20.010;2023-03-02T02:35:25;98973.88;;;2.64;62.62
16806;BME280;8520;50.102;20.010;2023-03-02T02:38:01;98970.38;;;2.67;62.43
16806;BME280;8520;50.102;20.010;2023-03-02T02:40:48;98965.34;;;2.66;62.18
16806;BME280;8520;50.102;20.010;2023-03-02T02:43:22;98957.91;;;2.70;61.93
16806;BME280;8520;50.102;20.010;2023-03-02T02:45:53;98958.31;;;2.68;61.81
16806;BME280;8520;50.102;20.010;2023-03-02T02:48:26;98952.50;;;2.66;61.93
16806;BME280;8520;50.102;20.010;2023-03-02T02:50:58;98956.78;;;2.64;61.80
16806;BME280;8520;50.102;20.010;2023-03-02T02:53:34;98959.13;;;2.62;61.69
16806;BME280;8520;50.102;20.010;2023-03-02T02:56:06;98952.94;;;2.61;61.83
16806;BME280;8520;50.102;20.010;2023-03-02T02:58:40;98957.94;;;2.66;61.66
16806;BME280;8520;50.102;20.010;2023-03-02T03:01:12;98949.38;;;2.64;61.78
16806;BME280;8520;50.102;20.010;2023-03-02T03:03:45;98947.84;;;2.63;61.70
16806;BME280;8520;50.102;20.010;2023-03-02T03:06:21;98943.63;;;2.59;61.77
16806;BME280;8520;50.102;20.010;2023-03-02T03:08:55;98942.88;;;2.58;63.06
16806;BME280;8520;50.102;20.010;2023-03-02T03:11:32;98941.16;;;2.30;66.34
16806;BME280;8520;50.102;20.010;2023-03-02T03:14:04;98946.88;;;1.91;68.06
16806;BME280;8520;50.102;20.010;2023-03-02T03:16:36;98940.13;;;2.10;67.90
16806;BME280;8520;50.102;20.010;2023-03-02T03:19:10;98932.78;;;2.07;67.96
16806;BME280;8520;50.102;20.010;2023-03-02T03:21:39;98932.25;;;2.30;66.75
16806;BME280;8520;50.102;20.010;2023-03-02T03:24:07;98925.88;;;2.43;65.95
16806;BME280;8520;50.102;20.010;2023-03-02T03:26:35;98926.63;;;2.47;65.56
16806;BME280;8520;50.102;20.010;2023-03-02T03:29:06;98930.50;;;2.50;65.28
16806;BME280;8520;50.102;20.010;2023-03-02T03:31:34;98930.09;;;2.51;65.21
16806;BME280;8520;50.102;20.010;2023-03-02T03:34:04;98927.72;;;2.53;64.76
16806;BME280;8520;50.102;20.010;2023-03-02T03:36:35;98920.78;;;2.49;64.35
16806;BME280;8520;50.102;20.010;2023-03-02T03:39:05;98920.81;;;2.45;64.24
16806;BME280;8520;50.102;20.010;2023-03-02T03:41:33;98911.03;;;2.51;64.16
16806;BME280;8520;50.102;20.010;2023-03-02T03:44:02;98916.50;;;2.51;64.14
16806;BME280;8520;50.102;20.010;2023-03-02T03:46:34;98913.56;;;2.32;65.17
16806;BME280;8520;50.102;20.010;2023-03-02T03:49:03;98915.84;;;2.37;65.59
16806;BME280;8520;50.102;20.010;2023-03-02T03:51:32;98918.19;;;2.38;66.09
16806;BME280;8520;50.102;20.010;2023-03-02T03:54:03;98907.63;;;2.44;66.33
16806;BME280;8520;50.102;20.010;2023-03-02T03:56:42;98915.81;;;2.40;65.78
16806;BME280;8520;50.102;20.010;2023-03-02T03:59:14;98915.47;;;2.38;65.19
16806;BME280;8520;50.102;20.010;2023-03-02T04:02:05;98911.16;;;2.37;64.93
16806;BME280;8520;50.102;20.010;2023-03-02T04:04:40;98911.31;;;2.23;65.18
16806;BME280;8520;50.102;20.010;2023-03-02T04:07:16;98915.34;;;2.04;66.86
16806;BME280;8520;50.102;20.010;2023-03-02T04:09:45;98906.59;;;1.79;68.18
16806;BME280;8520;50.102;20.010;2023-03-02T04:12:14;98912.34;;;1.88;68.27
16806;BME280;8520;50.102;20.010;2023-03-02T04:14:48;98910.69;;;2.05;67.24
16806;BME280;8520;50.102;20.010;2023-03-02T04:17:18;98907.56;;;2.06;66.50
16806;BME280;8520;50.102;20.010;2023-03-02T04:19:48;98913.81;;;2.03;65.77
16806;BME280;8520;50.102;20.010;2023-03-02T04:22:16;98912.25;;;2.02;65.33
16806;BME280;8520;50.102;20.010;2023-03-02T04:24:46;98908.78;;;2.02;64.86
16806;BME280;8520;50.102;20.010;2023-03-02T04:27:16;98912.22;;;2.06;64.66
16806;BME280;8520;50.102;20.010;2023-03-02T04:29:44;98910.19;;;2.17;64.32
16806;BME280;8520;50.102;20.010;2023-03-02T04:32:13;98911.72;;;2.21;64.12
16806;BME280;8520;50.102;20.010;2023-03-02T04:34:47;98911.72;;;2.18;64.11
16806;BME280;8520;50.102;20.010;2023-03-02T04:37:15;98913.72;;;2.14;64.43
16806;BME280;8520;50.102;20.010;2023-03-02T04:39:43;98907.06;;;2.18;64.50
16806;BME280;8520;50.102;20.010;2023-03-02T04:42:16;98907.47;;;2.20;64.19
16806;BME280;8520;50.102;20.010;2023-03-02T04:44:44;98894.69;;;2.14;64.18
16806;BME280;8520;50.102;20.010;2023-03-02T04:47:12;98899.44;;;1.99;64.88
16806;BME280;8520;50.102;20.010;2023-03-02T04:49:41;98896.09;;;1.14;66.51
16806;BME280;8520;50.102;20.010;2023-03-02T04:52:10;98893.53;;;0.72;68.06
16806;BME280;8520;50.102;20.010;2023-03-02T04:54:38;98893.59;;;0.50;68.71
16806;BME280;8520;50.102;20.010;2023-03-02T04:57:06;98894.41;;;0.37;69.58
16806;BME280;8520;50.102;20.010;2023-03-02T04:59:35;98902.94;;;0.28;70.48
16806;BME280;8520;50.102;20.010;2023-03-02T05:02:03;98898.28;;;0.28;70.52
16806;BME280;8520;50.102;20.010;2023-03-02T05:04:32;98902.53;;;0.22;71.07
16806;BME280;8520;50.102;20.010;2023-03-02T05:07:00;98909.91;;;0.29;70.99
16806;BME280;8520;50.102;20.010;2023-03-02T05:09:29;98904.09;;;0.23;71.09
16806;BME280;8520;50.102;20.010;2023-03-02T05:11:59;98907.97;;;0.19;71.38
16806;BME280;8520;50.102;20.010;2023-03-02T05:14:28;98913.00;;;0.13;71.53
16806;BME280;8520;50.102;20.010;2023-03-02T05:16:56;98911.81;;;0.07;72.03
16806;BME280;8520;50.102;20.010;2023-03-02T05:19:24;98917.25;;;0.07;71.96
16806;BME280;8520;50.102;20.010;2023-03-02T05:21:52;98907.97;;;0.05;72.00
16806;BME280;8520;50.102;20.010;2023-03-02T05:24:22;98911.44;;;-0.02;72.18
16806;BME280;8520;50.102;20.010;2023-03-02T05:26:51;98920.75;;;0.01;72.23
16806;BME280;8520;50.102;20.010;2023-03-02T05:29:19;98916.06;;;-0.03;72.50
16806;BME280;8520;50.102;20.010;2023-03-02T05:31:48;98918.00;;;-0.03;72.43
16806;BME280;8520;50.102;20.010;2023-03-02T05:34:17;98916.84;;;-0.02;72.48
16806;BME280;8520;50.102;20.010;2023-03-02T05:36:45;98912.22;;;-0.02;72.47
16806;BME280;8520;50.102;20.010;2023-03-02T05:39:13;98923.06;;;0.02;72.39
16806;BME280;8520;50.102;20.010;2023-03-02T05:41:41;98920.34;;;0.06;72.32
16806;BME280;8520;50.102;20.010;2023-03-02T05:44:15;98916.50;;;0.10;72.37
16806;BME280;8520;50.102;20.010;2023-03-02T05:46:46;98915.31;;;0.15;72.90
16806;BME280;8520;50.102;20.010;2023-03-02T05:49:15;98919.59;;;0.19;72.87
16806;BME280;8520;50.102;20.010;2023-03-02T05:51:43;98920.34;;;0.23;72.52
16806;BME280;8520;50.102;20.010;2023-03-02T05:54:11;98925.00;;;0.30;72.31
16806;BME280;8520;50.102;20.010;2023-03-02T05:56:39;98914.50;;;0.36;72.00
16806;BME280;8520;50.102;20.010;2023-03-02T05:59:07;98916.88;;;0.37;71.89
16806;BME280;8520;50.102;20.010;2023-03-02T06:01:37;98912.19;;;0.45;71.87
16806;BME280;8520;50.102;20.010;2023-03-02T06:04:05;98913.75;;;0.49;71.79
16806;BME280;8520;50.102;20.010;2023-03-02T06:06:33;98925.75;;;0.55;71.68
16806;BME280;8520;50.102;20.010;2023-03-02T06:09:02;98931.91;;;0.60;71.45
16806;BME280;8520;50.102;20.010;2023-03-02T06:11:30;98921.84;;;0.60;71.28
16806;BME280;8520;50.102;20.010;2023-03-02T06:13:58;98928.41;;;0.63;71.27
16806;BME280;8520;50.102;20.010;2023-03-02T06:16:26;98923.41;;;0.65;71.17
16806;BME280;8520;50.102;20.010;2023-03-02T06:18:56;98927.63;;;0.73;71.13
16806;BME280;8520;50.102;20.010;2023-03-02T06:21:24;98933.81;;;0.80;71.13
16806;BME280;8520;50.102;20.010;2023-03-02T06:23:52;98925.69;;;0.84;71.13
16806;BME280;8520;50.102;20.010;2023-03-02T06:26:20;98923.31;;;0.93;71.16
16806;BME280;8520;50.102;20.010;2023-03-02T06:28:48;98925.63;;;0.98;71.08
16806;BME280;8520;50.102;20.010;2023-03-02T06:31:19;98920.56;;;1.00;70.79
16806;BME280;8520;50.102;20.010;2023-03-02T06:33:48;98922.09;;;1.08;70.70
16806;BME280;8520;50.102;20.010;2023-03-02T06:36:17;98927.88;;;1.18;70.66
16806;BME280;8520;50.102;20.010;2023-03-02T06:38:46;98922.81;;;1.23;70.28
16806;BME280;8520;50.102;20.010;2023-03-02T06:41:14;98933.63;;;1.34;70.34
16806;BME280;8520;50.102;20.010;2023-03-02T06:43:42;98937.09;;;1.41;70.22
16806;BME280;8520;50.102;20.010;2023-03-02T06:46:11;98947.53;;;1.47;70.10
16806;BME280;8520;50.102;20.010;2023-03-02T06:48:39;98937.78;;;1.53;70.23
16806;BME280;8520;50.102;20.010;2023-03-02T06:51:07;98943.97;;;1.60;70.27
16806;BME280;8520;50.102;20.010;2023-03-02T06:53:37;98947.81;;;1.66;70.18
16806;BME280;8520;50.102;20.010;2023-03-02T06:56:06;98945.44;;;1.72;70.09
16806;BME280;8520;50.102;20.010;2023-03-02T06:58:34;98948.13;;;1.79;69.96
16806;BME280;8520;50.102;20.010;2023-03-02T07:01:03;98945.00;;;1.84;69.89
16806;BME280;8520;50.102;20.010;2023-03-02T07:03:33;98950.75;;;1.93;69.98
16806;BME280;8520;50.102;20.010;2023-03-02T07:06:03;98954.59;;;1.99;69.92
16806;BME280;8520;50.102;20.010;2023-03-02T07:08:31;98954.94;;;2.05;69.84
16806;BME280;8520;50.102;20.010;2023-03-02T07:11:03;98954.91;;;2.12;69.49
16806;BME280;8520;50.102;20.010;2023-03-02T07:13:32;98957.16;;;2.21;69.40
16806;BME280;8520;50.102;20.010;2023-03-02T07:16:05;98961.78;;;2.24;68.81
16806;BME280;8520;50.102;20.010;2023-03-02T07:18:33;98955.53;;;2.31;68.96
16806;BME280;8520;50.102;20.010;2023-03-02T07:21:01;98962.41;;;2.42;69.08
16806;BME280;8520;50.102;20.010;2023-03-02T07:23:29;98951.50;;;2.49;69.01
16806;BME280;8520;50.102;20.010;2023-03-02T07:25:57;98952.19;;;2.57;68.92
16806;BME280;8520;50.102;20.010;2023-03-02T07:28:26;98952.50;;;2.63;69.03
16806;BME280;8520;50.102;20.010;2023-03-02T07:30:55;98948.53;;;2.74;68.79
16806;BME280;8520;50.102;20.010;2023-03-02T07:33:23;98948.84;;;2.80;68.33
16806;BME280;8520;50.102;20.010;2023-03-02T07:35:51;98947.78;;;2.70;67.91
16806;BME280;8520;50.102;20.010;2023-03-02T07:38:20;98947.31;;;2.79;67.74
16806;BME280;8520;50.102;20.010;2023-03-02T07:40:48;98950.84;;;2.76;66.29
16806;BME280;8520;50.102;20.010;2023-03-02T07:43:16;98951.50;;;2.87;65.62
16806;BME280;8520;50.102;20.010;2023-03-02T07:45:45;98946.31;;;3.00;65.67
16806;BME280;8520;50.102;20.010;2023-03-02T07:48:13;98949.41;;;3.02;64.97
16806;BME280;8520;50.102;20.010;2023-03-02T07:50:41;98954.94;;;2.95;65.11
16806;BME280;8520;50.102;20.010;2023-03-02T07:53:10;98954.13;;;2.98;65.25
16806;BME280;8520;50.102;20.010;2023-03-02T07:55:39;98954.31;;;3.14;65.64
16806;BME280;8520;50.102;20.010;2023-03-02T07:58:07;98950.34;;;3.22;65.39
16806;BME280;8520;50.102;20.010;2023-03-02T08:00:35;98951.41;;;3.28;65.05
16806;BME280;8520;50.102;20.010;2023-03-02T08:03:09;98950.56;;;3.35;64.80
16806;BME280;8520;50.102;20.010;2023-03-02T08:05:37;98947.75;;;3.42;64.61
16806;BME280;8520;50.102;20.010;2023-03-02T08:08:05;98953.94;;;3.46;65.43
16806;BME280;8520;50.102;20.010;2023-03-02T08:10:34;98952.66;;;3.54;65.10
16806;BME280;8520;50.102;20.010;2023-03-02T08:13:02;98953.84;;;3.53;65.13
16806;BME280;8520;50.102;20.010;2023-03-02T08:15:31;98951.38;;;3.62;64.94
16806;BME280;8520;50.102;20.010;2023-03-02T08:17:59;98951.34;;;3.66;65.13
16806;BME280;8520;50.102;20.010;2023-03-02T08:20:29;98949.28;;;3.74;64.81
16806;BME280;8520;50.102;20.010;2023-03-02T08:22:57;98949.28;;;3.74;64.51
16806;BME280;8520;50.102;20.010;2023-03-02T08:25:26;98950.56;;;3.92;64.76
16806;BME280;8520;50.102;20.010;2023-03-02T08:27:54;98943.91;;;3.97;65.13
16806;BME280;8520;50.102;20.010;2023-03-02T08:30:22;98941.84;;;4.05;64.83
16806;BME280;8520;50.102;20.010;2023-03-02T08:32:51;98947.47;;;4.17;64.69
16806;BME280;8520;50.102;20.010;2023-03-02T08:35:19;98930.66;;;4.22;64.09
16806;BME280;8520;50.102;20.010;2023-03-02T08:37:49;98926.44;;;4.41;64.04
16806;BME280;8520;50.102;20.010;2023-03-02T08:40:17;98926.38;;;4.45;63.84
16806;BME280;8520;50.102;20.010;2023-03-02T08:42:45;98932.19;;;4.23;64.65
16806;BME280;8520;50.102;20.010;2023-03-02T08:45:15;98931.38;;;4.50;64.14
16806;BME280;8520;50.102;20.010;2023-03-02T08:47:45;98925.94;;;4.46;62.93
16806;BME280;8520;50.102;20.010;2023-03-02T08:50:13;98923.97;;;4.70;62.60
16806;BME280;8520;50.102;20.010;2023-03-02T08:52:41;98925.63;;;4.88;62.36
16806;BME280;8520;50.102;20.010;2023-03-02T08:55:11;98927.06;;;4.92;62.22
16806;BME280;8520;50.102;20.010;2023-03-02T08:57:39;98921.41;;;5.03;61.87
16806;BME280;8520;50.102;20.010;2023-03-02T09:00:09;98927.06;;;5.12;61.49
16806;BME280;8520;50.102;20.010;2023-03-02T09:02:40;98930.06;;;5.21;61.51
16806;BME280;8520;50.102;20.010;2023-03-02T09:05:09;98922.44;;;5.29;61.65
16806;BME280;8520;50.102;20.010;2023-03-02T09:07:38;98924.34;;;5.32;60.35
16806;BME280;8520;50.102;20.010;2023-03-02T09:10:06;98922.66;;;5.38;60.48
16806;BME280;8520;50.102;20.010;2023-03-02T09:12:36;98924.56;;;5.41;60.78
16806;BME280;8520;50.102;20.010;2023-03-02T09:15:05;98920.06;;;5.51;60.82
16806;BME280;8520;50.102;20.010;2023-03-02T09:17:33;98914.84;;;5.56;60.33
16806;BME280;8520;50.102;20.010;2023-03-02T09:20:02;98913.00;;;5.69;60.58
16806;BME280;8520;50.102;20.010;2023-03-02T09:22:30;98910.38;;;5.82;60.41
16806;BME280;8520;50.102;20.010;2023-03-02T09:25:01;98907.91;;;5.88;60.36
16806;BME280;8520;50.102;20.010;2023-03-02T09:27:29;98914.41;;;5.94;60.07
16806;BME280;8520;50.102;20.010;2023-03-02T09:29:59;98908.72;;;6.05;59.88
16806;BME280;8520;50.102;20.010;2023-03-02T09:32:27;98898.28;;;6.16;59.43
16806;BME280;8520;50.102;20.010;2023-03-02T09:34:55;98901.25;;;6.21;58.63
16806;BME280;8520;50.102;20.010;2023-03-02T09:37:23;98906.81;;;6.34;58.60
16806;BME280;8520;50.102;20.010;2023-03-02T09:39:51;98900.41;;;6.24;58.44
16806;BME280;8520;50.102;20.010;2023-03-02T09:42:29;98898.25;;;6.48;57.76
16806;BME280;8520;50.102;20.010;2023-03-02T09:45:20;98897.63;;;6.57;57.46
16806;BME280;8520;50.102;20.010;2023-03-02T09:47:57;98901.50;;;6.60;57.43
16806;BME280;8520;50.102;20.010;2023-03-02T09:50:33;98898.53;;;6.67;56.77
16806;BME280;8520;50.102;20.010;2023-03-02T09:53:15;98896.31;;;6.78;56.23
16806;BME280;8520;50.102;20.010;2023-03-02T09:55:50;98888.31;;;6.83;55.93
16806;BME280;8520;50.102;20.010;2023-03-02T09:58:22;98890.28;;;6.83;55.82
16806;BME280;8520;50.102;20.010;2023-03-02T10:00:53;98890.25;;;6.99;55.22
16806;BME280;8520;50.102;20.010;2023-03-02T10:03:24;98890.91;;;6.74;55.00
16806;BME280;8520;50.102;20.010;2023-03-02T10:05:55;98892.53;;;7.01;54.42
16806;BME280;8520;50.102;20.010;2023-03-02T10:08:26;98890.34;;;6.96;53.96
16806;BME280;8520;50.102;20.010;2023-03-02T10:11:00;98893.56;;;7.20;53.91
16806;BME280;8520;50.102;20.010;2023-03-02T10:13:38;98888.13;;;7.32;53.92
16806;BME280;8520;50.102;20.010;2023-03-02T10:16:20;98885.41;;;7.45;53.51
16806;BME280;8520;50.102;20.010;2023-03-02T10:19:05;98873.31;;;7.17;53.90
16806;BME280;8520;50.102;20.010;2023-03-02T10:21:37;98883.81;;;7.19;54.26
16806;BME280;8520;50.102;20.010;2023-03-02T10:24:15;98888.25;;;7.41;53.25
16806;BME280;8520;50.102;20.010;2023-03-02T10:26:49;98869.69;;;6.78;53.63
16806;BME280;8520;50.102;20.010;2023-03-02T10:29:30;98872.03;;;7.47;53.80
16806;BME280;8520;50.102;20.010;2023-03-02T10:32:12;98869.19;;;7.63;52.08
16806;BME280;8520;50.102;20.010;2023-03-02T10:34:43;98868.94;;;7.58;51.44
16806;BME280;8520;50.102;20.010;2023-03-02T10:37:14;98858.31;;;7.73;51.88
16806;BME280;8520;50.102;20.010;2023-03-02T10:39:45;98862.16;;;7.88;50.27
16806;BME280;8520;50.102;20.010;2023-03-02T10:42:15;98860.91;;;8.02;49.86
16806;BME280;8520;50.102;20.010;2023-03-02T10:44:47;98853.81;;;7.53;50.19
16806;BME280;8520;50.102;20.010;2023-03-02T10:47:23;98854.13;;;8.06;50.02
16806;BME280;8520;50.102;20.010;2023-03-02T10:49:52;98852.31;;;8.25;50.25
16806;BME280;8520;50.102;20.010;2023-03-02T10:52:21;98850.09;;;8.33;47.92
16806;BME280;8520;50.102;20.010;2023-03-02T10:55:01;98844.16;;;8.47;48.01
16806;BME280;8520;50.102;20.010;2023-03-02T10:57:34;98835.00;;;8.50;47.61
16806;BME280;8520;50.102;20.010;2023-03-02T11:00:12;98837.44;;;8.48;47.77
16806;BME280;8520;50.102;20.010;2023-03-02T11:02:49;98831.78;;;8.64;47.54
16806;BME280;8520;50.102;20.010;2023-03-02T11:05:22;98828.19;;;8.76;46.87
16806;BME280;8520;50.102;20.010;2023-03-02T11:07:53;98825.31;;;8.80;46.73
16806;BME280;8520;50.102;20.010;2023-03-02T11:10:23;98816.84;;;8.87;46.91
16806;BME280;8520;50.102;20.010;2023-03-02T11:12:52;98823.72;;;8.92;46.35
16806;BME280;8520;50.102;20.010;2023-03-02T11:15:23;98820.31;;;9.09;46.20
16806;BME280;8520;50.102;20.010;2023-03-02T11:17:58;98816.34;;;9.10;45.29
16806;BME280;8520;50.102;20.010;2023-03-02T11:20:30;98810.03;;;9.01;44.01
16806;BME280;8520;50.102;20.010;2023-03-02T11:23:09;98808.28;;;9.16;44.26
16806;BME280;8520;50.102;20.010;2023-03-02T11:25:44;98804.38;;;9.26;43.44
16806;BME280;8520;50.102;20.010;2023-03-02T11:28:24;98793.72;;;9.06;43.85
16806;BME280;8520;50.102;20.010;2023-03-02T11:30:59;98784.38;;;9.35;44.16
16806;BME280;8520;50.102;20.010;2023-03-02T11:33:34;98788.06;;;9.41;43.48
16806;BME280;8520;50.102;20.010;2023-03-02T11:36:08;98785.34;;;9.50;43.78
16806;BME280;8520;50.102;20.010;2023-03-02T11:38:43;98781.69;;;8.82;44.45
16806;BME280;8520;50.102;20.010;2023-03-02T11:41:23;98783.09;;;9.18;44.32
16806;BME280;8520;50.102;20.010;2023-03-02T11:43:58;98777.75;;;9.23;43.86
16806;BME280;8520;50.102;20.010;2023-03-02T11:46:29;98770.13;;;8.87;45.39
16806;BME280;8520;50.102;20.010;2023-03-02T11:49:03;98778.94;;;8.82;45.72
16806;BME280;8520;50.102;20.010;2023-03-02T11:51:34;98772.22;;;9.14;45.13
16806;BME280;8520;50.102;20.010;2023-03-02T11:54:15;98770.78;;;9.40;44.58
16806;BME280;8520;50.102;20.010;2023-03-02T11:56:46;98771.59;;;9.10;45.29
16806;BME280;8520;50.102;20.010;2023-03-02T11:59:17;98765.78;;;9.08;44.31
16806;BME280;8520;50.102;20.010;2023-03-02T12:01:48;98759.63;;;9.35;43.66
16806;BME280;8520;50.102;20.010;2023-03-02T12:04:29;98760.31;;;9.57;43.20
16806;BME280;8520;50.102;20.010;2023-03-02T12:07:00;98755.00;;;9.72;44.33
16806;BME280;8520;50.102;20.010;2023-03-02T12:09:33;98743.09;;;9.93;44.61
16806;BME280;8520;50.102;20.010;2023-03-02T12:12:33;98748.94;;;10.23;44.17
16806;BME280;8520;50.102;20.010;2023-03-02T12:15:25;98751.84;;;10.56;44.51
16806;BME280;8520;50.102;20.010;2023-03-02T12:17:53;98747.59;;;11.06;44.22
16806;BME280;8520;50.102;20.010;2023-03-02T12:20:25;98738.00;;;12.07;43.34
16806;BME280;8520;50.102;20.010;2023-03-02T12:23:06;98726.75;;;13.23;41.82
16806;BME280;8520;50.102;20.010;2023-03-02T12:25:42;98728.91;;;13.69;39.84
16806;BME280;8520;50.102;20.010;2023-03-02T12:28:31;98721.88;;;15.18;39.09
16806;BME280;8520;50.102;20.010;2023-03-02T12:31:17;98716.22;;;16.57;37.25
16806;BME280;8520;50.102;20.010;2023-03-02T12:33:47;98715.50;;;16.90;36.73
16806;BME280;8520;50.102;20.010;2023-03-02T12:36:25;98711.38;;;17.58;35.87
16806;BME280;8520;50.102;20.010;2023-03-02T12:39:08;98709.00;;;17.96;35.32
16806;BME280;8520;50.102;20.010;2023-03-02T12:42:02;98700.84;;;19.16;34.31
16806;BME280;8520;50.102;20.010;2023-03-02T12:44:47;98698.31;;;18.88;34.26
16806;BME280;8520;50.102;20.010;2023-03-02T12:47:19;98697.63;;;20.04;33.27
16806;BME280;8520;50.102;20.010;2023-03-02T12:49:56;98696.66;;;20.39;33.16
16806;BME280;8520;50.102;20.010;2023-03-02T12:52:30;98697.47;;;20.34;32.82
16806;BME280;8520;50.102;20.010;2023-03-02T12:55:02;98692.56;;;20.91;32.45
16806;BME280;8520;50.102;20.010;2023-03-02T12:57:31;98685.22;;;20.56;32.65
16806;BME280;8520;50.102;20.010;2023-03-02T13:00:01;98690.72;;;20.49;32.68
16806;BME280;8520;50.102;20.010;2023-03-02T13:02:31;98685.69;;;20.04;32.71
16806;BME280;8520;50.102;20.010;2023-03-02T13:05:01;98678.09;;;19.80;33.42
16806;BME280;8520;50.102;20.010;2023-03-02T13:07:36;98674.03;;;19.08;33.70
16806;BME280;8520;50.102;20.010;2023-03-02T13:10:18;98670.44;;;19.13;34.08
16806;BME280;8520;50.102;20.010;2023-03-02T13:12:48;98675.66;;;19.22;34.07
16806;BME280;8520;50.102;20.010;2023-03-02T13:15:17;98671.63;;;19.17;33.84
16806;BME280;8520;50.102;20.010;2023-03-02T13:17:52;98667.06;;;18.90;34.24
16806;BME280;8520;50.102;20.010;2023-03-02T13:20:24;98663.09;;;18.44;34.81
16806;BME280;8520;50.102;20.010;2023-03-02T13:22:54;98668.97;;;18.35;35.01
16806;BME280;8520;50.102;20.010;2023-03-02T13:25:25;98664.09;;;18.05;34.94
16806;BME280;8520;50.102;20.010;2023-03-02T13:27:56;98663.84;;;18.03;35.13
16806;BME280;8520;50.102;20.010;2023-03-02T13:30:28;98650.28;;;17.77;35.40
16806;BME280;8520;50.102;20.010;2023-03-02T13:32:59;98649.31;;;17.52;35.70